Time;durP1;ratioP1;P1;durP2;ratioP2;P2;SDS_P1;SDS_P2;PMS_P1;PMS_P2;Temp;Humidity;BMP_temperature;BMP_pressure;BME280_temperature;BME280_humidity;BME280_pressure;Samples;Min_cycle;Max_cycle;Signal;HPM_P1;HPM_P2
2023/12/21 00:01:12;;;;;;;4.30;1.60;;;;;;;;;;82052;275;3032641;-33
2023/12/21 00:03:55;;;;;;;3.70;1.50;;;;;;;;;;82065;275;3028737;-33
2023/12/21 00:06:33;;;;;;;4.80;1.70;;;;;;;;;;82081;275;3034128;-33
2023/12/21 00:09:09;;;;;;;3.80;1.50;;;;;;;;;;83464;275;3030463;-33
2023/12/21 00:11:46;;;;;;;4.10;1.80;;;;;;;;;;82693;279;3031288;-33
2023/12/21 00:14:23;;;;;;;3.70;1.50;;;;;;;;;;82052;275;3028552;-33
2023/12/21 00:16:59;;;;;;;4.00;1.40;;;;;;;;;;82274;275;3028063;-33
2023/12/21 00:19:35;;;;;;;4.00;1.50;;;;;;;;;;82057;275;3030745;-33
2023/12/21 00:22:11;;;;;;;4.40;1.60;;;;;;;;;;82030;275;3032114;-33
2023/12/21 00:24:48;;;;;;;4.10;1.60;;;;;;;;;;82025;275;3028051;-33
2023/12/21 00:27:24;;;;;;;4.10;1.60;;;;;;;;;;82088;275;3027844;-33
2023/12/21 00:30:03;;;;;;;4.30;1.70;;;;;;;;;;82096;275;3031993;-34
2023/12/21 00:32:41;;;;;;;4.30;1.70;;;;;;;;;;82066;275;3031607;-34
2023/12/21 00:35:21;;;;;;;4.30;1.50;;;;;;;;;;82034;275;3029184;-34
2023/12/21 00:37:57;;;;;;;3.70;1.40;;;;;;;;;;82114;275;3027819;-34
2023/12/21 00:40:34;;;;;;;4.40;1.70;;;;;;;;;;82086;275;3030192;-34
2023/12/21 00:43:15;;;;;;;3.50;1.40;;;;;;;;;;82100;275;3031637;-34
2023/12/21 00:45:54;;;;;;;3.90;1.50;;;;;;;;;;82077;272;3028837;-34
2023/12/21 00:48:32;;;;;;;4.30;1.70;;;;;;;;;;82095;275;3027967;-34
2023/12/21 00:51:11;;;;;;;4.10;1.70;;;;;;;;;;82116;279;3030923;-34
2023/12/21 00:53:50;;;;;;;4.60;1.70;;;;;;;;;;82101;275;3032408;-33
2023/12/21 00:56:30;;;;;;;3.70;1.70;;;;;;;;;;82053;276;3028406;-33
2023/12/21 00:59:07;;;;;;;4.10;1.60;;;;;;;;;;82087;275;3027519;-33
2023/12/21 01:01:43;;;;;;;4.20;1.70;;;;;;;;;;82085;275;3030693;-33
2023/12/21 01:04:19;;;;;;;4.50;1.80;;;;;;;;;;82115;275;3032346;-33
2023/12/21 01:06:58;;;;;;;3.90;1.70;;;;;;;;;;82411;279;3028118;-33
2023/12/21 01:09:34;;;;;;;4.40;1.90;;;;;;;;;;82084;275;3028074;-33
2023/12/21 01:12:12;;;;;;;3.50;1.50;;;;;;;;;;82075;275;3030978;-33
2023/12/21 01:14:49;;;;;;;4.20;1.70;;;;;;;;;;83425;279;3031370;-33
2023/12/21 01:17:25;;;;;;;3.70;1.70;;;;;;;;;;83428;275;3028647;-33
2023/12/21 01:20:01;;;;;;;3.90;1.60;;;;;;;;;;83426;275;3027123;-34
2023/12/21 01:22:40;;;;;;;4.70;1.90;;;;;;;;;;83096;279;3030895;-33
2023/12/21 01:25:17;;;;;;;3.50;1.50;;;;;;;;;;83466;279;3031926;-33
2023/12/21 01:27:53;;;;;;;3.80;1.60;;;;;;;;;;83446;275;3028412;-32
2023/12/21 01:30:29;;;;;;;4.10;1.70;;;;;;;;;;83345;275;3027274;-34
2023/12/21 01:33:11;;;;;;;4.10;1.60;;;;;;;;;;82088;275;3030563;-33
2023/12/21 01:35:50;;;;;;;3.70;1.60;;;;;;;;;;82070;275;3031381;-33
2023/12/21 01:38:29;;;;;;;3.90;1.60;;;;;;;;;;82049;275;3035458;-33
2023/12/21 01:41:09;;;;;;;4.20;1.70;;;;;;;;;;82061;275;3027911;-33
2023/12/21 01:43:50;;;;;;;4.30;1.80;;;;;;;;;;82090;275;3030893;-33
2023/12/21 01:46:26;;;;;;;4.50;1.90;;;;;;;;;;82048;275;3031236;-34
2023/12/21 01:49:05;;;;;;;3.80;1.70;;;;;;;;;;82101;275;3028103;-33
2023/12/21 01:51:44;;;;;;;4.60;1.90;;;;;;;;;;83083;275;3027807;-34
2023/12/21 01:54:22;;;;;;;4.10;1.70;;;;;;;;;;82844;275;3030639;-34
2023/12/21 01:56:58;;;;;;;3.90;1.70;;;;;;;;;;82057;275;3031495;-34
2023/12/21 01:59:36;;;;;;;4.20;1.80;;;;;;;;;;82055;275;3028699;-34
2023/12/21 02:02:13;;;;;;;4.60;1.80;;;;;;;;;;82082;272;3027252;-34
2023/12/21 02:04:50;;;;;;;4.30;1.70;;;;;;;;;;83449;279;3031319;-34
2023/12/21 02:07:28;;;;;;;4.20;1.80;;;;;;;;;;82156;275;3031566;-33
2023/12/21 02:10:09;;;;;;;4.50;1.90;;;;;;;;;;82100;275;3028450;-33
2023/12/21 02:12:45;;;;;;;4.70;1.70;;;;;;;;;;83472;279;3027883;-33
2023/12/21 02:15:22;;;;;;;3.50;1.50;;;;;;;;;;82735;275;3030555;-33
2023/12/21 02:18:05;;;;;;;4.30;1.60;;;;;;;;;;82080;275;3032140;-33
2023/12/21 02:20:43;;;;;;;3.70;1.80;;;;;;;;;;82882;275;3028273;-32
2023/12/21 02:23:20;;;;;;;4.40;1.90;;;;;;;;;;83451;279;3027093;-32
2023/12/21 02:25:57;;;;;;;4.50;1.70;;;;;;;;;;83464;275;3030742;-32
2023/12/21 02:28:33;;;;;;;4.40;1.70;;;;;;;;;;83430;275;3031623;-32
2023/12/21 02:31:09;;;;;;;3.60;1.80;;;;;;;;;;83454;279;3028072;-32
2023/12/21 02:33:45;;;;;;;3.90;1.90;;;;;;;;;;83458;279;3027592;-32
2023/12/21 02:36:21;;;;;;;4.00;1.60;;;;;;;;;;83447;275;3030742;-32
2023/12/21 02:38:57;;;;;;;3.90;1.60;;;;;;;;;;83449;275;3031269;-32
2023/12/21 02:41:34;;;;;;;3.90;1.70;;;;;;;;;;83437;279;3029321;-33
2023/12/21 02:44:10;;;;;;;3.90;1.80;;;;;;;;;;83477;279;3027260;-33
2023/12/21 02:46:46;;;;;;;4.40;2.00;;;;;;;;;;83447;275;3031024;-33
2023/12/21 02:49:22;;;;;;;4.50;1.80;;;;;;;;;;83452;279;3032164;-33
2023/12/21 02:51:58;;;;;;;4.00;1.70;;;;;;;;;;83439;275;3028545;-33
2023/12/21 02:54:34;;;;;;;3.60;1.70;;;;;;;;;;83449;279;3027496;-33
2023/12/21 02:57:10;;;;;;;4.10;1.60;;;;;;;;;;83440;279;3030932;-33
2023/12/21 02:59:47;;;;;;;4.30;1.70;;;;;;;;;;82615;275;3031674;-33
2023/12/21 03:02:24;;;;;;;4.20;1.60;;;;;;;;;;82052;275;3027924;-33
2023/12/21 03:05:02;;;;;;;4.10;1.70;;;;;;;;;;82089;275;3027428;-33
2023/12/21 03:07:38;;;;;;;4.00;1.60;;;;;;;;;;82094;275;3030370;-33
2023/12/21 03:10:18;;;;;;;3.60;1.60;;;;;;;;;;82064;275;3038248;-33
2023/12/21 03:12:55;;;;;;;3.80;1.70;;;;;;;;;;83453;279;3028507;-33
2023/12/21 03:15:32;;;;;;;3.20;1.50;;;;;;;;;;83432;279;3027701;-33
2023/12/21 03:18:09;;;;;;;4.20;1.60;;;;;;;;;;83444;279;3030827;-33
2023/12/21 03:20:45;;;;;;;4.70;1.70;;;;;;;;;;82330;275;3037911;-33
2023/12/21 03:23:24;;;;;;;3.40;1.60;;;;;;;;;;82077;275;3028505;-33
2023/12/21 03:26:00;;;;;;;4.60;1.70;;;;;;;;;;82079;275;3028513;-33
2023/12/21 03:28:44;;;;;;;3.90;1.70;;;;;;;;;;82070;271;3030631;-33
2023/12/21 03:31:21;;;;;;;3.90;1.70;;;;;;;;;;82070;275;3031879;-33
2023/12/21 03:34:02;;;;;;;3.70;1.50;;;;;;;;;;82095;275;3028643;-33
2023/12/21 03:36:40;;;;;;;3.50;1.60;;;;;;;;;;82077;275;3028419;-33
2023/12/21 03:39:16;;;;;;;3.90;1.60;;;;;;;;;;82089;275;3031046;-33
2023/12/21 03:41:52;;;;;;;3.80;1.70;;;;;;;;;;82142;275;3031533;-33
2023/12/21 03:44:31;;;;;;;4.90;1.60;;;;;;;;;;82086;275;3028036;-33
2023/12/21 03:47:11;;;;;;;4.10;1.80;;;;;;;;;;82086;275;3027571;-33
2023/12/21 03:49:49;;;;;;;3.90;1.70;;;;;;;;;;82068;275;3030346;-33
2023/12/21 03:52:25;;;;;;;4.90;1.70;;;;;;;;;;82066;272;3031493;-33
2023/12/21 03:55:06;;;;;;;3.70;1.50;;;;;;;;;;82381;275;3029634;-33
2023/12/21 03:57:49;;;;;;;3.60;1.50;;;;;;;;;;82089;275;3027970;-33
2023/12/21 04:00:27;;;;;;;4.40;1.80;;;;;;;;;;82050;271;3030476;-33
2023/12/21 04:03:07;;;;;;;3.50;1.40;;;;;;;;;;82286;279;3031723;-33
2023/12/21 04:06:05;;;;;;;3.70;1.60;;;;;;;;;;82128;275;3028715;-33
2023/12/21 04:08:41;;;;;;;4.70;1.60;;;;;;;;;;83000;275;3027857;-33
2023/12/21 04:11:17;;;;;;;4.50;1.60;;;;;;;;;;82056;272;3030757;-33
2023/12/21 04:13:53;;;;;;;4.20;1.60;;;;;;;;;;82075;275;3031256;-33
2023/12/21 04:16:32;;;;;;;4.20;1.50;;;;;;;;;;82039;275;3027846;-33
2023/12/21 04:19:09;;;;;;;4.30;1.70;;;;;;;;;;82070;275;3027863;-33
2023/12/21 04:21:46;;;;;;;3.90;1.60;;;;;;;;;;82037;275;3030868;-33
2023/12/21 04:24:22;;;;;;;4.50;1.70;;;;;;;;;;82074;275;3031875;-33
2023/12/21 04:26:58;;;;;;;3.90;1.60;;;;;;;;;;82091;275;3027992;-33
2023/12/21 04:29:34;;;;;;;4.90;1.70;;;;;;;;;;82121;275;3027295;-33
2023/12/21 04:32:10;;;;;;;3.90;1.60;;;;;;;;;;82085;275;3036455;-33
2023/12/21 04:34:48;;;;;;;4.20;1.70;;;;;;;;;;82055;275;3032046;-33
2023/12/21 04:37:24;;;;;;;4.80;1.90;;;;;;;;;;82096;275;3027889;-33
2023/12/21 04:40:00;;;;;;;3.70;1.60;;;;;;;;;;82088;275;3027815;-32
2023/12/21 04:42:36;;;;;;;3.60;1.60;;;;;;;;;;82108;275;3037089;-32
2023/12/21 04:45:12;;;;;;;4.00;1.60;;;;;;;;;;81099;275;3032547;-31
2023/12/21 04:47:51;;;;;;;3.90;1.60;;;;;;;;;;82201;275;3028698;-31
2023/12/21 04:50:29;;;;;;;4.00;1.70;;;;;;;;;;82052;275;3027506;-31
2023/12/21 04:53:08;;;;;;;4.00;1.60;;;;;;;;;;82070;275;3031195;-31
2023/12/21 04:55:44;;;;;;;3.70;1.50;;;;;;;;;;83452;279;3031355;-32
2023/12/21 04:58:20;;;;;;;3.80;1.50;;;;;;;;;;83438;275;3028888;-32
2023/12/21 05:00:56;;;;;;;4.10;1.50;;;;;;;;;;83438;275;3027592;-32
2023/12/21 05:03:32;;;;;;;3.50;1.50;;;;;;;;;;83451;279;3030585;-32
2023/12/21 05:06:09;;;;;;;5.30;1.60;;;;;;;;;;83446;275;3031718;-32
2023/12/21 05:08:45;;;;;;;4.50;1.50;;;;;;;;;;83468;275;3028917;-32
2023/12/21 05:11:21;;;;;;;4.40;1.60;;;;;;;;;;83446;275;3027259;-32
2023/12/21 05:13:58;;;;;;;4.60;1.50;;;;;;;;;;83247;275;3030985;-32
2023/12/21 05:16:40;;;;;;;3.70;1.60;;;;;;;;;;82096;275;3031385;-32
2023/12/21 05:19:18;;;;;;;3.60;1.40;;;;;;;;;;82073;275;3028139;-32
2023/12/21 05:21:54;;;;;;;3.50;1.30;;;;;;;;;;82020;275;3027431;-32
2023/12/21 05:24:31;;;;;;;3.70;1.30;;;;;;;;;;82073;275;3030743;-31
2023/12/21 05:27:09;;;;;;;4.90;1.70;;;;;;;;;;82068;275;3032881;-32
2023/12/21 05:29:46;;;;;;;4.30;1.30;;;;;;;;;;83153;279;3028029;-32
2023/12/21 05:32:22;;;;;;;4.10;1.30;;;;;;;;;;82020;275;3027853;-32
2023/12/21 05:34:59;;;;;;;3.40;1.30;;;;;;;;;;82115;275;3031210;-32
2023/12/21 05:37:36;;;;;;;4.40;1.40;;;;;;;;;;82067;279;3031649;-32
2023/12/21 05:40:15;;;;;;;3.30;1.40;;;;;;;;;;82062;275;3028127;-32
2023/12/21 05:42:51;;;;;;;3.90;1.40;;;;;;;;;;83425;279;3027357;-33
2023/12/21 05:45:28;;;;;;;3.10;1.30;;;;;;;;;;82096;275;3031404;-33
2023/12/21 05:48:05;;;;;;;3.80;1.40;;;;;;;;;;82061;275;3032034;-33
2023/12/21 05:50:42;;;;;;;4.00;1.50;;;;;;;;;;83420;279;3028811;-33
2023/12/21 05:53:21;;;;;;;3.80;1.70;;;;;;;;;;82051;275;3028083;-33
2023/12/21 05:55:57;;;;;;;3.60;1.60;;;;;;;;;;82102;275;3031105;-33
2023/12/21 05:58:35;;;;;;;4.00;1.40;;;;;;;;;;82102;275;3031689;-33
2023/12/21 06:01:14;;;;;;;3.60;1.50;;;;;;;;;;82102;275;3028446;-33
2023/12/21 06:03:51;;;;;;;4.00;1.50;;;;;;;;;;82031;272;3028683;-33
2023/12/21 06:06:29;;;;;;;3.70;1.50;;;;;;;;;;82093;279;3031342;-33
2023/12/21 06:09:10;;;;;;;3.60;1.40;;;;;;;;;;82094;275;3032436;-33
2023/12/21 06:11:46;;;;;;;4.20;1.50;;;;;;;;;;82114;275;3028546;-33
2023/12/21 06:14:26;;;;;;;3.90;1.40;;;;;;;;;;82083;275;3033846;-33
2023/12/21 06:17:02;;;;;;;3.90;1.40;;;;;;;;;;82116;275;3031029;-33
2023/12/21 06:19:38;;;;;;;3.70;1.40;;;;;;;;;;82154;275;3031300;-33
2023/12/21 06:22:16;;;;;;;4.40;1.50;;;;;;;;;;82075;275;3028381;-33
2023/12/21 06:24:53;;;;;;;4.10;1.40;;;;;;;;;;82078;275;3033489;-33
2023/12/21 06:27:29;;;;;;;3.90;1.50;;;;;;;;;;82077;275;3031113;-33
2023/12/21 06:30:07;;;;;;;4.20;1.60;;;;;;;;;;82097;275;3031469;-33
2023/12/21 06:32:46;;;;;;;4.20;1.50;;;;;;;;;;82893;275;3028120;-33
2023/12/21 06:35:23;;;;;;;4.70;1.50;;;;;;;;;;82066;275;3028358;-33
2023/12/21 06:38:06;;;;;;;4.20;1.40;;;;;;;;;;82087;275;3031571;-33
2023/12/21 06:40:47;;;;;;;4.00;1.50;;;;;;;;;;82081;279;3031528;-33
2023/12/21 06:43:24;;;;;;;5.10;1.90;;;;;;;;;;82053;275;3028001;-33
2023/12/21 06:46:02;;;;;;;4.70;1.70;;;;;;;;;;82082;275;3027099;-33
2023/12/21 06:48:44;;;;;;;4.70;1.50;;;;;;;;;;82074;275;3030744;-33
2023/12/21 06:51:22;;;;;;;4.30;1.60;;;;;;;;;;82066;271;3031686;-33
2023/12/21 06:54:03;;;;;;;3.60;1.30;;;;;;;;;;82074;275;3030052;-33
2023/12/21 06:56:44;;;;;;;5.00;1.40;;;;;;;;;;82111;275;3027254;-33
2023/12/21 06:59:23;;;;;;;4.30;1.80;;;;;;;;;;82047;277;3031384;-33
2023/12/21 07:02:01;;;;;;;5.10;1.50;;;;;;;;;;82242;273;3031175;-33
2023/12/21 07:04:38;;;;;;;5.20;1.50;;;;;;;;;;82088;274;3028262;-32
2023/12/21 07:07:15;;;;;;;4.30;1.50;;;;;;;;;;82076;274;3027216;-32
2023/12/21 07:09:53;;;;;;;3.90;1.20;;;;;;;;;;82130;274;3030550;-32
2023/12/21 07:12:34;;;;;;;4.30;1.30;;;;;;;;;;82121;274;3031178;-33
2023/12/21 07:15:13;;;;;;;3.40;1.20;;;;;;;;;;82073;274;3028707;-32
2023/12/21 07:17:49;;;;;;;5.60;1.50;;;;;;;;;;83482;277;3027612;-33
2023/12/21 07:20:28;;;;;;;4.10;1.30;;;;;;;;;;83491;278;3031430;-34
2023/12/21 07:23:05;;;;;;;3.70;1.40;;;;;;;;;;83481;274;3031672;-34
2023/12/21 07:25:42;;;;;;;3.30;1.40;;;;;;;;;;83495;278;3028744;-33
2023/12/21 07:28:19;;;;;;;3.70;1.20;;;;;;;;;;83475;278;3027759;-33
2023/12/21 07:30:55;;;;;;;4.10;1.30;;;;;;;;;;83448;278;3030985;-33
2023/12/21 07:33:33;;;;;;;4.00;1.40;;;;;;;;;;83473;278;3031593;-33
2023/12/21 07:36:10;;;;;;;3.40;1.40;;;;;;;;;;83454;274;3034420;-33
2023/12/21 07:38:47;;;;;;;4.60;1.30;;;;;;;;;;83479;274;3027958;-33
2023/12/21 07:41:23;;;;;;;3.70;1.30;;;;;;;;;;83489;277;3030971;-33
2023/12/21 07:44:00;;;;;;;3.10;1.10;;;;;;;;;;83457;278;3031745;-33
2023/12/21 07:46:36;;;;;;;3.60;1.20;;;;;;;;;;83478;274;3033971;-33
2023/12/21 07:49:13;;;;;;;4.00;1.20;;;;;;;;;;83488;274;3027424;-33
2023/12/21 07:51:50;;;;;;;3.60;1.30;;;;;;;;;;83446;277;3031219;-33
2023/12/21 07:54:26;;;;;;;3.90;1.30;;;;;;;;;;83466;278;3032007;-33
2023/12/21 07:57:03;;;;;;;3.50;1.20;;;;;;;;;;83481;278;3028188;-32
2023/12/21 07:59:39;;;;;;;3.20;1.20;;;;;;;;;;83486;274;3027106;-33
2023/12/21 08:02:17;;;;;;;3.90;1.20;;;;;;;;;;83419;278;3030288;-33
2023/12/21 08:04:53;;;;;;;4.60;1.30;;;;;;;;;;83451;274;3031133;-32
2023/12/21 08:07:30;;;;;;;3.20;1.20;;;;;;;;;;82740;275;3028497;-29
2023/12/21 08:10:11;;;;;;;3.20;1.20;;;;;;;;;;82057;274;3028017;-31
2023/12/21 08:12:48;;;;;;;2.70;1.10;;;;;;;;;;83476;278;3030593;-32
2023/12/21 08:15:27;;;;;;;3.40;1.30;;;;;;;;;;82792;274;3031836;-31
2023/12/21 08:18:05;;;;;;;3.90;1.30;;;;;;;;;;82092;275;3029308;-31
2023/12/21 08:20:42;;;;;;;3.40;1.10;;;;;;;;;;83470;278;3027216;-32
2023/12/21 08:23:19;;;;;;;2.90;1.20;;;;;;;;;;83483;274;3031952;-31
2023/12/21 08:25:56;;;;;;;2.60;1.00;;;;;;;;;;83434;277;3031280;-32
2023/12/21 08:28:32;;;;;;;3.20;1.20;;;;;;;;;;83483;277;3028419;-31
2023/12/21 08:31:09;;;;;;;3.40;1.20;;;;;;;;;;83453;277;3027858;-30
2023/12/21 08:33:46;;;;;;;4.50;1.20;;;;;;;;;;83501;278;3032100;-30
2023/12/21 08:36:22;;;;;;;2.80;1.10;;;;;;;;;;83444;278;3031930;-30
2023/12/21 08:39:01;;;;;;;2.70;1.00;;;;;;;;;;83509;277;3028213;-30
2023/12/21 08:41:37;;;;;;;3.70;1.20;;;;;;;;;;83022;278;3027264;-31
2023/12/21 08:44:15;;;;;;;4.40;1.10;;;;;;;;;;82104;274;3030437;-30
2023/12/21 08:46:53;;;;;;;3.00;1.00;;;;;;;;;;82077;274;3031464;-31
2023/12/21 08:49:29;;;;;;;3.50;1.20;;;;;;;;;;82134;274;3028653;-31
2023/12/21 08:52:09;;;;;;;3.10;1.00;;;;;;;;;;83455;278;3027894;-31
2023/12/21 08:54:46;;;;;;;2.80;1.00;;;;;;;;;;82669;275;3030699;-31
2023/12/21 08:57:25;;;;;;;4.30;1.20;;;;;;;;;;82114;274;3032494;-30
2023/12/21 09:00:05;;;;;;;3.10;1.10;;;;;;;;;;82095;274;3028689;-31
2023/12/21 09:02:44;;;;;;;3.20;1.10;;;;;;;;;;82092;274;3028125;-31
2023/12/21 09:05:24;;;;;;;3.10;1.20;;;;;;;;;;82093;274;3031424;-31
2023/12/21 09:08:03;;;;;;;3.30;1.10;;;;;;;;;;82148;274;3031794;-31
2023/12/21 09:10:40;;;;;;;2.70;1.10;;;;;;;;;;82101;274;3029745;-31
2023/12/21 09:13:19;;;;;;;3.20;1.10;;;;;;;;;;82135;274;3027457;-31
2023/12/21 09:16:00;;;;;;;2.30;1.00;;;;;;;;;;82118;274;3030775;-31
2023/12/21 09:18:39;;;;;;;3.10;1.30;;;;;;;;;;82137;274;3039057;-31
2023/12/21 09:21:16;;;;;;;3.60;1.10;;;;;;;;;;82122;274;3028015;-31
2023/12/21 09:23:54;;;;;;;3.40;1.10;;;;;;;;;;82109;274;3028805;-31
2023/12/21 09:26:33;;;;;;;2.60;1.00;;;;;;;;;;82112;274;3030839;-31
2023/12/21 09:29:10;;;;;;;3.20;1.00;;;;;;;;;;82126;274;3032057;-31
2023/12/21 09:31:47;;;;;;;3.30;0.90;;;;;;;;;;82104;274;3029015;-31
2023/12/21 09:34:27;;;;;;;2.90;1.00;;;;;;;;;;83451;274;3027587;-31
2023/12/21 09:37:06;;;;;;;2.90;0.90;;;;;;;;;;83425;277;3030807;-30
2023/12/21 09:39:42;;;;;;;4.00;0.90;;;;;;;;;;83496;278;3031824;-29
2023/12/21 09:42:20;;;;;;;3.30;1.00;;;;;;;;;;83489;277;3028675;-28
2023/12/21 09:44:57;;;;;;;3.60;1.10;;;;;;;;;;83480;278;3027525;-29
2023/12/21 09:47:36;;;;;;;2.60;0.90;;;;;;;;;;83507;274;3030399;-29
2023/12/21 09:50:14;;;;;;;3.10;0.90;;;;;;;;;;83574;275;3031954;-29
2023/12/21 09:52:53;;;;;;;2.50;1.00;;;;;;;;;;83344;274;3027996;-28
2023/12/21 09:55:32;;;;;;;4.70;1.00;;;;;;;;;;83479;278;3027917;-28
2023/12/21 09:58:09;;;;;;;3.20;1.00;;;;;;;;;;83576;278;3030676;-31
2023/12/21 10:00:45;;;;;;;2.60;1.00;;;;;;;;;;83480;274;3031480;-32
2023/12/21 10:03:22;;;;;;;4.00;1.10;;;;;;;;;;83495;278;3028018;-31
2023/12/21 10:05:58;;;;;;;2.80;0.90;;;;;;;;;;83451;278;3027822;-31
2023/12/21 10:08:34;;;;;;;3.10;0.90;;;;;;;;;;83447;278;3030937;-32
2023/12/21 10:11:10;;;;;;;2.50;0.90;;;;;;;;;;83453;278;3031761;-31
2023/12/21 10:13:53;;;;;;;1.90;0.80;;;;;;;;;;83513;274;3028302;-31
2023/12/21 10:16:29;;;;;;;3.50;0.90;;;;;;;;;;83484;277;3027833;-31
2023/12/21 10:19:05;;;;;;;3.60;1.00;;;;;;;;;;83465;274;3031952;-31
2023/12/21 10:21:42;;;;;;;2.80;0.80;;;;;;;;;;83490;277;3031474;-30
2023/12/21 10:24:19;;;;;;;2.40;0.80;;;;;;;;;;83467;277;3028831;-31
2023/12/21 10:26:55;;;;;;;3.30;0.80;;;;;;;;;;83449;278;3027803;-32
2023/12/21 10:29:35;;;;;;;2.70;0.90;;;;;;;;;;83253;277;3031329;-35
2023/12/21 10:32:18;;;;;;;3.10;0.90;;;;;;;;;;82127;274;3031867;-35
2023/12/21 10:34:59;;;;;;;2.60;0.80;;;;;;;;;;82183;274;3028510;-35
2023/12/21 10:37:39;;;;;;;3.30;0.90;;;;;;;;;;82113;275;3027178;-34
2023/12/21 10:40:18;;;;;;;2.20;0.70;;;;;;;;;;82175;274;3037337;-34
2023/12/21 10:42:54;;;;;;;2.90;0.90;;;;;;;;;;83472;278;3031242;-34
2023/12/21 10:45:31;;;;;;;2.60;0.70;;;;;;;;;;83483;278;3028723;-34
2023/12/21 10:48:15;;;;;;;2.40;0.90;;;;;;;;;;83465;278;3027113;-34
2023/12/21 10:50:53;;;;;;;2.40;0.90;;;;;;;;;;83513;277;3038670;-34
2023/12/21 10:53:30;;;;;;;2.50;0.90;;;;;;;;;;83509;278;3031408;-34
2023/12/21 10:56:08;;;;;;;2.80;0.80;;;;;;;;;;82380;275;3028988;-34
2023/12/21 10:58:45;;;;;;;3.40;1.00;;;;;;;;;;83444;278;3028008;-34
2023/12/21 11:01:21;;;;;;;2.10;0.80;;;;;;;;;;83472;274;3030407;-34
2023/12/21 11:03:58;;;;;;;2.90;0.90;;;;;;;;;;83451;278;3031820;-34
2023/12/21 11:06:35;;;;;;;2.50;0.80;;;;;;;;;;83486;278;3028669;-34
2023/12/21 11:09:18;;;;;;;3.30;0.90;;;;;;;;;;83475;277;3027600;-34
2023/12/21 11:11:57;;;;;;;2.60;0.90;;;;;;;;;;83455;274;3030441;-34
2023/12/21 11:14:34;;;;;;;2.30;0.80;;;;;;;;;;83493;274;3031091;-33
2023/12/21 11:17:11;;;;;;;2.70;0.90;;;;;;;;;;83471;274;3028093;-33
2023/12/21 11:19:49;;;;;;;2.80;0.90;;;;;;;;;;83465;274;3027400;-34
2023/12/21 11:22:27;;;;;;;2.10;0.80;;;;;;;;;;83477;278;3031071;-33
2023/12/21 11:25:12;;;;;;;2.50;0.90;;;;;;;;;;83501;278;3031304;-33
2023/12/21 11:27:48;;;;;;;2.70;0.80;;;;;;;;;;83466;277;3028046;-33
2023/12/21 11:30:32;;;;;;;2.80;0.80;;;;;;;;;;83458;274;3027195;-34
2023/12/21 11:33:11;;;;;;;3.20;0.80;;;;;;;;;;83468;278;3030823;-33
2023/12/21 11:35:57;;;;;;;4.00;0.80;;;;;;;;;;83463;276;3031035;-34
2023/12/21 11:38:47;;;;;;;2.70;0.90;;;;;;;;;;83422;278;3029307;-34
2023/12/21 11:41:29;;;;;;;2.70;0.90;;;;;;;;;;83181;277;3027943;-34
2023/12/21 11:44:09;;;;;;;2.80;0.80;;;;;;;;;;82086;274;3032785;-33
2023/12/21 11:46:49;;;;;;;2.10;0.80;;;;;;;;;;82104;274;3031344;-33
2023/12/21 11:49:30;;;;;;;2.50;0.90;;;;;;;;;;82115;270;3028153;-34
2023/12/21 11:52:09;;;;;;;2.80;1.00;;;;;;;;;;82066;274;3034084;-33
2023/12/21 11:54:49;;;;;;;2.10;0.80;;;;;;;;;;83498;278;3030479;-33
2023/12/21 11:57:30;;;;;;;2.80;0.80;;;;;;;;;;82585;278;3031174;-34
2023/12/21 12:00:16;;;;;;;2.40;0.90;;;;;;;;;;83445;278;3029216;-33
2023/12/21 12:02:54;;;;;;;2.00;0.90;;;;;;;;;;82205;277;3027251;-33
2023/12/21 12:05:32;;;;;;;2.40;0.90;;;;;;;;;;82100;274;3031333;-33
2023/12/21 12:08:10;;;;;;;2.30;0.80;;;;;;;;;;82132;277;3031256;-33
2023/12/21 12:10:46;;;;;;;2.70;0.90;;;;;;;;;;83497;277;3028219;-33
2023/12/21 12:13:23;;;;;;;2.60;0.80;;;;;;;;;;83013;274;3027407;-33
2023/12/21 12:16:00;;;;;;;2.60;0.80;;;;;;;;;;82127;274;3031285;-32
2023/12/21 12:18:42;;;;;;;1.70;0.80;;;;;;;;;;82191;274;3031724;-32
2023/12/21 12:21:20;;;;;;;2.80;0.90;;;;;;;;;;82131;274;3027849;-32
2023/12/21 12:24:01;;;;;;;2.50;0.70;;;;;;;;;;82162;274;3027903;-32
2023/12/21 12:26:37;;;;;;;2.70;0.90;;;;;;;;;;83499;277;3030385;-33
2023/12/21 12:29:18;;;;;;;3.00;0.90;;;;;;;;;;83485;277;3031371;-33
2023/12/21 12:31:54;;;;;;;2.40;0.80;;;;;;;;;;83438;277;3028467;-33
2023/12/21 12:34:30;;;;;;;2.00;0.70;;;;;;;;;;83461;278;3027597;-31
2023/12/21 12:37:07;;;;;;;2.20;0.80;;;;;;;;;;83456;278;3030519;-31
2023/12/21 12:39:43;;;;;;;2.80;0.90;;;;;;;;;;83472;278;3032275;-30
2023/12/21 12:42:20;;;;;;;2.50;0.80;;;;;;;;;;83433;278;3028744;-30
2023/12/21 12:44:56;;;;;;;2.70;0.80;;;;;;;;;;83093;278;3495223;-30
2023/12/21 12:47:34;;;;;;;3.10;0.90;;;;;;;;;;82993;278;3031130;-30
2023/12/21 12:50:14;;;;;;;2.70;0.80;;;;;;;;;;83474;278;3031353;-29
2023/12/21 12:52:50;;;;;;;2.90;0.80;;;;;;;;;;83440;274;3028190;-29
2023/12/21 12:55:29;;;;;;;2.60;0.80;;;;;;;;;;82331;275;3027028;-30
2023/12/21 12:58:12;;;;;;;2.40;0.80;;;;;;;;;;82145;274;3030576;-28
2023/12/21 13:00:50;;;;;;;2.60;1.00;;;;;;;;;;82158;274;3031832;-29
2023/12/21 13:03:30;;;;;;;2.40;1.10;;;;;;;;;;83216;274;3034312;-31
2023/12/21 13:06:09;;;;;;;2.90;0.90;;;;;;;;;;82112;274;3028411;-31
2023/12/21 13:08:56;;;;;;;2.40;0.80;;;;;;;;;;82161;274;3030824;-30
2023/12/21 13:11:33;;;;;;;3.00;1.00;;;;;;;;;;82087;274;3031473;-30
2023/12/21 13:14:10;;;;;;;2.30;0.90;;;;;;;;;;82165;274;3028283;-30
2023/12/21 13:16:47;;;;;;;2.50;1.00;;;;;;;;;;82168;274;3027836;-31
2023/12/21 13:19:25;;;;;;;2.70;0.80;;;;;;;;;;82113;274;3031339;-30
2023/12/21 13:22:04;;;;;;;2.90;1.00;;;;;;;;;;82322;274;3032316;-30
2023/12/21 13:24:40;;;;;;;2.30;0.80;;;;;;;;;;82527;274;3028805;-31
2023/12/21 13:27:19;;;;;;;3.30;0.90;;;;;;;;;;82113;274;3028018;-30
2023/12/21 13:29:56;;;;;;;3.10;1.00;;;;;;;;;;82154;274;3032111;-29
2023/12/21 13:32:35;;;;;;;2.30;0.80;;;;;;;;;;82127;274;3032642;-30
2023/12/21 13:35:18;;;;;;;44.50;32.30;;;;;;;;;;82132;274;3028511;-30
2023/12/21 13:37:54;;;;;;;58.60;39.90;;;;;;;;;;82273;277;3027760;-30
2023/12/21 13:40:32;;;;;;;60.50;34.80;;;;;;;;;;82102;274;3030652;-32
2023/12/21 13:43:08;;;;;;;62.10;37.60;;;;;;;;;;82259;275;3031458;-30
2023/12/21 13:45:46;;;;;;;67.70;37.70;;;;;;;;;;82127;274;3028814;-30
2023/12/21 13:48:22;;;;;;;61.40;33.20;;;;;;;;;;82155;274;3027420;-30
2023/12/21 13:51:01;;;;;;;58.00;32.20;;;;;;;;;;82156;274;3030545;-30
2023/12/21 13:53:39;;;;;;;55.40;29.40;;;;;;;;;;82044;274;3031982;-30
2023/12/21 13:56:17;;;;;;;50.90;27.70;;;;;;;;;;82216;274;3028868;-30
2023/12/21 13:58:53;;;;;;;44.70;24.90;;;;;;;;;;83473;277;3027467;-30
2023/12/21 14:01:29;;;;;;;39.40;21.60;;;;;;;;;;82465;275;3031046;-30
2023/12/21 14:04:08;;;;;;;38.60;20.10;;;;;;;;;;82064;275;3031922;-30
2023/12/21 14:06:44;;;;;;;35.40;19.20;;;;;;;;;;83482;274;3028714;-30
2023/12/21 14:09:24;;;;;;;34.90;17.40;;;;;;;;;;82292;271;3027754;-30
2023/12/21 14:12:06;;;;;;;29.40;15.90;;;;;;;;;;82106;274;3030517;-31
2023/12/21 14:14:42;;;;;;;27.60;15.10;;;;;;;;;;83474;278;3031796;-30
2023/12/21 14:17:18;;;;;;;25.70;13.40;;;;;;;;;;83478;275;3029313;-30
2023/12/21 14:19:54;;;;;;;27.50;14.20;;;;;;;;;;82336;274;3027109;-30
2023/12/21 14:22:32;;;;;;;21.90;12.80;;;;;;;;;;82090;274;3030988;-30
2023/12/21 14:25:11;;;;;;;23.10;11.70;;;;;;;;;;82131;274;3031921;-30
2023/12/21 14:27:49;;;;;;;21.50;11.00;;;;;;;;;;83116;278;3028825;-30
2023/12/21 14:30:30;;;;;;;19.70;10.70;;;;;;;;;;82140;274;3028258;-30
2023/12/21 14:33:12;;;;;;;16.40;9.50;;;;;;;;;;82113;274;3031407;-31
2023/12/21 14:35:52;;;;;;;18.70;9.80;;;;;;;;;;82121;274;3037457;-30
2023/12/21 14:38:31;;;;;;;18.00;8.70;;;;;;;;;;82098;274;3029359;-30
2023/12/21 14:41:11;;;;;;;15.80;8.00;;;;;;;;;;82145;274;3027320;-32
2023/12/21 14:43:50;;;;;;;16.40;8.20;;;;;;;;;;82079;274;3031019;-31
2023/12/21 14:46:31;;;;;;;13.90;7.30;;;;;;;;;;82168;274;3031561;-32
2023/12/21 14:49:12;;;;;;;13.20;6.90;;;;;;;;;;82135;274;3028727;-32
2023/12/21 14:51:49;;;;;;;11.80;6.10;;;;;;;;;;82139;274;3027045;-30
2023/12/21 14:54:25;;;;;;;12.90;6.40;;;;;;;;;;82168;274;3030274;-31
2023/12/21 14:57:02;;;;;;;12.00;5.90;;;;;;;;;;82131;274;3032847;-31
2023/12/21 14:59:38;;;;;;;11.70;5.80;;;;;;;;;;82135;275;3027908;-31
2023/12/21 15:02:15;;;;;;;11.30;5.80;;;;;;;;;;82130;275;3027524;-30
2023/12/21 15:04:51;;;;;;;12.00;5.90;;;;;;;;;;82679;274;3031223;-29
2023/12/21 15:07:27;;;;;;;10.10;5.20;;;;;;;;;;82172;274;3031226;-29
2023/12/21 15:10:03;;;;;;;11.40;5.60;;;;;;;;;;82157;274;3027965;-29
2023/12/21 15:12:39;;;;;;;10.20;4.80;;;;;;;;;;82157;274;3027926;-31
2023/12/21 15:15:16;;;;;;;9.30;4.90;;;;;;;;;;82154;274;3031113;-32
2023/12/21 15:17:52;;;;;;;10.10;4.70;;;;;;;;;;82352;274;3031728;-32
2023/12/21 15:20:28;;;;;;;10.50;5.00;;;;;;;;;;82222;274;3028472;-30
2023/12/21 15:23:04;;;;;;;9.50;5.00;;;;;;;;;;82155;274;3027245;-30
2023/12/21 15:25:41;;;;;;;11.70;5.20;;;;;;;;;;82149;274;3031018;-30
2023/12/21 15:28:17;;;;;;;9.50;5.10;;;;;;;;;;82151;274;3031525;-29
2023/12/21 15:30:53;;;;;;;8.90;4.50;;;;;;;;;;82158;274;3029274;-29